< Typhoon 195201 1952 Season Typhoon 195203 >
Typhoon 195202 (DINAH)
General InformationTrack Information on Google Maps || Disaster Info.ResourceGoogle EarthGE AnimationAtom FeedGeoJSON
Detalied Best Track (Time Zone = UTC)
Year Month Day Hour Lat. Long. Pressure (hPa) Wind (kt) Class Image Chart
1952 6 19 00 12.0 129.5 1006 0 2 -- Chart
1952 6 19 06 12.0 128.5 1004 0 2 -- Chart
1952 6 19 12 13.2 126.8 1003 0 2 -- Chart
1952 6 19 18 14.0 125.5 1002 0 2 -- Chart
1952 6 20 00 15.0 124.6 1000 0 2 -- Chart
1952 6 20 06 16.0 124.1 995 0 9 -- Chart
1952 6 20 12 17.0 123.9 995 0 9 -- Chart
1952 6 20 18 19.0 123.0 985 0 9 -- Chart
1952 6 21 00 20.0 122.6 982 0 9 -- Chart
1952 6 21 06 20.7 122.7 980 0 9 -- Chart
1952 6 21 12 21.5 123.0 975 0 9 -- Chart
1952 6 21 18 22.5 123.5 975 0 9 -- Chart
1952 6 22 00 23.4 124.2 970 0 9 -- Chart
1952 6 22 06 24.3 125.0 968 0 9 -- Chart
1952 6 22 12 25.7 126.3 960 0 9 -- Chart
1952 6 22 18 27.5 128.0 960 0 9 -- Chart
1952 6 23 00 29.7 129.9 970 0 9 -- Chart
1952 6 23 06 31.9 133.1 974 0 9 -- Chart
1952 6 23 12 33.8 136.2 970 0 9 -- Chart
1952 6 23 18 35.8 139.9 984 0 9 -- Chart
1952 6 24 00 37.0 143.0 982 0 9 -- Chart
1952 6 24 06 37.5 147.5 988 0 9 -- Chart
1952 6 24 12 37.5 152.3 990 0 9 -- Chart
1952 6 24 18 37.7 157.0 990 0 6 -- Chart
1952 6 25 00 36.8 162.0 990 0 6 -- Chart
1952 6 25 06 37.3 167.6 992 0 6 -- Chart
1952 6 25 12 39.0 172.0 985 0 6 -- Chart
1952 6 25 18 41.0 175.0 985 0 6 -- Chart
1952 6 26 00 42.2 175.6 982 0 6 -- Chart
1952 6 26 06 44.1 176.2 982 0 6 -- Chart
1952 6 26 12 46.7 177.5 982 0 6 -- Chart
1952 6 26 18 50.3 183.0 985 0 6 -- Chart
Japan Meteorological Agency Best Track Data | Correction Date : 1989-06-01
< Typhoon 195201 1952 Season Typhoon 195203 >

Help